sensor_id;sensor_type;location;lat;lon;timestamp;P1;durP1;ratioP1;P2;durP2;ratioP2
3259;SDS011;22469;48.150;14.004;2023-02-26T00:01:39;7.83;;;7.20;;
3259;SDS011;22469;48.150;14.004;2023-02-26T00:04:07;6.87;;;6.30;;
3259;SDS011;22469;48.150;14.004;2023-02-26T00:06:36;6.50;;;5.90;;
3259;SDS011;22469;48.150;14.004;2023-02-26T00:09:21;6.43;;;5.90;;
3259;SDS011;22469;48.150;14.004;2023-02-26T00:11:48;7.90;;;7.20;;
3259;SDS011;22469;48.150;14.004;2023-02-26T00:14:16;7.73;;;7.00;;
3259;SDS011;22469;48.150;14.004;2023-02-26T00:16:45;7.90;;;7.10;;
3259;SDS011;22469;48.150;14.004;2023-02-26T00:19:21;7.50;;;6.90;;
3259;SDS011;22469;48.150;14.004;2023-02-26T00:21:48;9.33;;;7.17;;
3259;SDS011;22469;48.150;14.004;2023-02-26T00:24:16;8.57;;;7.30;;
3259;SDS011;22469;48.150;14.004;2023-02-26T00:26:43;9.03;;;6.67;;
3259;SDS011;22469;48.150;14.004;2023-02-26T00:29:10;8.53;;;7.37;;
3259;SDS011;22469;48.150;14.004;2023-02-26T00:31:37;7.30;;;6.50;;
3259;SDS011;22469;48.150;14.004;2023-02-26T00:34:05;9.03;;;8.20;;
3259;SDS011;22469;48.150;14.004;2023-02-26T00:39:43;7.70;;;7.07;;
3259;SDS011;22469;48.150;14.004;2023-02-26T00:42:22;7.40;;;6.80;;
3259;SDS011;22469;48.150;14.004;2023-02-26T00:44:49;7.37;;;6.80;;
3259;SDS011;22469;48.150;14.004;2023-02-26T00:52:55;8.00;;;7.40;;
3259;SDS011;22469;48.150;14.004;2023-02-26T00:55:49;7.20;;;6.60;;
3259;SDS011;22469;48.150;14.004;2023-02-26T00:58:16;8.03;;;7.33;;
3259;SDS011;22469;48.150;14.004;2023-02-26T01:00:43;11.20;;;7.40;;
3259;SDS011;22469;48.150;14.004;2023-02-26T01:03:10;7.60;;;6.60;;
3259;SDS011;22469;48.150;14.004;2023-02-26T01:05:38;8.63;;;6.30;;
3259;SDS011;22469;48.150;14.004;2023-02-26T01:10:50;7.33;;;6.60;;
3259;SDS011;22469;48.150;14.004;2023-02-26T01:13:17;7.57;;;6.87;;
3259;SDS011;22469;48.150;14.004;2023-02-26T01:15:49;7.10;;;6.50;;
3259;SDS011;22469;48.150;14.004;2023-02-26T01:18:28;9.37;;;7.40;;
3259;SDS011;22469;48.150;14.004;2023-02-26T01:21:11;7.40;;;6.83;;
3259;SDS011;22469;48.150;14.004;2023-02-26T01:23:46;8.03;;;7.23;;
3259;SDS011;22469;48.150;14.004;2023-02-26T01:26:18;8.03;;;7.30;;
3259;SDS011;22469;48.150;14.004;2023-02-26T01:28:51;8.27;;;7.57;;
3259;SDS011;22469;48.150;14.004;2023-02-26T01:31:54;8.10;;;7.30;;
3259;SDS011;22469;48.150;14.004;2023-02-26T01:34:33;6.50;;;5.90;;
3259;SDS011;22469;48.150;14.004;2023-02-26T01:37:12;8.13;;;7.30;;
3259;SDS011;22469;48.150;14.004;2023-02-26T01:42:39;7.87;;;7.07;;
3259;SDS011;22469;48.150;14.004;2023-02-26T01:45:11;6.83;;;6.27;;
3259;SDS011;22469;48.150;14.004;2023-02-26T01:48:11;8.83;;;8.13;;
3259;SDS011;22469;48.150;14.004;2023-02-26T01:51:04;7.57;;;6.77;;
3259;SDS011;22469;48.150;14.004;2023-02-26T01:53:31;7.50;;;6.80;;
3259;SDS011;22469;48.150;14.004;2023-02-26T01:56:02;7.07;;;6.37;;
3259;SDS011;22469;48.150;14.004;2023-02-26T01:58:37;8.70;;;7.70;;
3259;SDS011;22469;48.150;14.004;2023-02-26T02:01:05;8.53;;;7.63;;
3259;SDS011;22469;48.150;14.004;2023-02-26T02:03:35;9.27;;;8.27;;
3259;SDS011;22469;48.150;14.004;2023-02-26T02:06:06;8.90;;;8.10;;
3259;SDS011;22469;48.150;14.004;2023-02-26T02:08:39;8.07;;;6.90;;
3259;SDS011;22469;48.150;14.004;2023-02-26T02:11:07;7.37;;;6.80;;
3259;SDS011;22469;48.150;14.004;2023-02-26T02:13:45;5.57;;;5.07;;
3259;SDS011;22469;48.150;14.004;2023-02-26T02:16:52;6.50;;;5.90;;
3259;SDS011;22469;48.150;14.004;2023-02-26T02:25:25;4.07;;;3.77;;
3259;SDS011;22469;48.150;14.004;2023-02-26T02:28:28;4.00;;;3.70;;
3259;SDS011;22469;48.150;14.004;2023-02-26T02:31:25;3.10;;;2.90;;
3259;SDS011;22469;48.150;14.004;2023-02-26T02:39:07;2.33;;;2.23;;
3259;SDS011;22469;48.150;14.004;2023-02-26T02:41:44;3.97;;;2.43;;
3259;SDS011;22469;48.150;14.004;2023-02-26T02:44:19;2.73;;;2.63;;
3259;SDS011;22469;48.150;14.004;2023-02-26T02:46:51;2.20;;;2.10;;
3259;SDS011;22469;48.150;14.004;2023-02-26T02:49:24;2.50;;;2.40;;
3259;SDS011;22469;48.150;14.004;2023-02-26T02:56:09;2.47;;;2.37;;
3259;SDS011;22469;48.150;14.004;2023-02-26T02:58:42;1.67;;;1.60;;
3259;SDS011;22469;48.150;14.004;2023-02-26T03:01:17;2.30;;;2.20;;
3259;SDS011;22469;48.150;14.004;2023-02-26T03:04:07;1.70;;;1.70;;
3259;SDS011;22469;48.150;14.004;2023-02-26T03:06:39;1.63;;;1.53;;
3259;SDS011;22469;48.150;14.004;2023-02-26T03:09:07;2.07;;;1.97;;
3259;SDS011;22469;48.150;14.004;2023-02-26T03:11:36;2.20;;;2.10;;
3259;SDS011;22469;48.150;14.004;2023-02-26T03:17:35;1.60;;;1.50;;
3259;SDS011;22469;48.150;14.004;2023-02-26T03:24:13;1.93;;;1.83;;
3259;SDS011;22469;48.150;14.004;2023-02-26T03:35:17;2.23;;;2.03;;
3259;SDS011;22469;48.150;14.004;2023-02-26T03:38:02;2.07;;;1.97;;
3259;SDS011;22469;48.150;14.004;2023-02-26T03:40:36;2.37;;;2.27;;
3259;SDS011;22469;48.150;14.004;2023-02-26T03:43:17;1.57;;;1.57;;
3259;SDS011;22469;48.150;14.004;2023-02-26T03:45:46;2.67;;;2.57;;
3259;SDS011;22469;48.150;14.004;2023-02-26T03:48:19;1.97;;;1.87;;
3259;SDS011;22469;48.150;14.004;2023-02-26T03:50:52;2.10;;;2.00;;
3259;SDS011;22469;48.150;14.004;2023-02-26T03:53:25;1.83;;;1.70;;
3259;SDS011;22469;48.150;14.004;2023-02-26T03:58:37;1.90;;;1.80;;
3259;SDS011;22469;48.150;14.004;2023-02-26T04:01:05;2.07;;;2.03;;
3259;SDS011;22469;48.150;14.004;2023-02-26T04:03:48;2.30;;;1.90;;
3259;SDS011;22469;48.150;14.004;2023-02-26T04:06:31;2.07;;;1.97;;
3259;SDS011;22469;48.150;14.004;2023-02-26T04:09:00;2.47;;;2.37;;
3259;SDS011;22469;48.150;14.004;2023-02-26T04:11:28;2.10;;;2.00;;
3259;SDS011;22469;48.150;14.004;2023-02-26T04:13:57;2.20;;;2.00;;
3259;SDS011;22469;48.150;14.004;2023-02-26T04:16:24;2.67;;;2.47;;
3259;SDS011;22469;48.150;14.004;2023-02-26T04:18:52;2.70;;;2.60;;
3259;SDS011;22469;48.150;14.004;2023-02-26T04:21:19;2.43;;;2.33;;
3259;SDS011;22469;48.150;14.004;2023-02-26T04:23:48;3.10;;;3.00;;
3259;SDS011;22469;48.150;14.004;2023-02-26T04:26:15;3.43;;;3.23;;
3259;SDS011;22469;48.150;14.004;2023-02-26T04:28:42;3.50;;;3.30;;
3259;SDS011;22469;48.150;14.004;2023-02-26T04:31:09;2.80;;;2.60;;
3259;SDS011;22469;48.150;14.004;2023-02-26T04:33:36;3.40;;;3.10;;
3259;SDS011;22469;48.150;14.004;2023-02-26T04:36:03;3.80;;;3.50;;
3259;SDS011;22469;48.150;14.004;2023-02-26T04:38:31;3.90;;;3.60;;
3259;SDS011;22469;48.150;14.004;2023-02-26T04:40:58;4.40;;;4.20;;
3259;SDS011;22469;48.150;14.004;2023-02-26T04:43:25;6.17;;;4.80;;
3259;SDS011;22469;48.150;14.004;2023-02-26T04:45:52;5.40;;;4.90;;
3259;SDS011;22469;48.150;14.004;2023-02-26T04:48:19;4.77;;;4.37;;
3259;SDS011;22469;48.150;14.004;2023-02-26T04:50:46;4.07;;;3.80;;
3259;SDS011;22469;48.150;14.004;2023-02-26T04:53:13;6.07;;;4.90;;
3259;SDS011;22469;48.150;14.004;2023-02-26T04:55:40;6.00;;;5.60;;
3259;SDS011;22469;48.150;14.004;2023-02-26T04:58:08;6.57;;;5.97;;
3259;SDS011;22469;48.150;14.004;2023-02-26T05:00:35;7.33;;;6.63;;
3259;SDS011;22469;48.150;14.004;2023-02-26T05:03:02;8.30;;;6.20;;
3259;SDS011;22469;48.150;14.004;2023-02-26T05:05:29;6.83;;;6.27;;
3259;SDS011;22469;48.150;14.004;2023-02-26T05:07:57;6.20;;;5.70;;
3259;SDS011;22469;48.150;14.004;2023-02-26T05:10:24;5.67;;;4.97;;
3259;SDS011;22469;48.150;14.004;2023-02-26T05:12:51;6.43;;;5.83;;
3259;SDS011;22469;48.150;14.004;2023-02-26T05:15:18;6.10;;;5.60;;
3259;SDS011;22469;48.150;14.004;2023-02-26T05:17:46;5.60;;;5.20;;
3259;SDS011;22469;48.150;14.004;2023-02-26T05:20:13;6.87;;;6.33;;
3259;SDS011;22469;48.150;14.004;2023-02-26T05:22:40;7.40;;;6.70;;
3259;SDS011;22469;48.150;14.004;2023-02-26T05:25:09;6.30;;;5.90;;
3259;SDS011;22469;48.150;14.004;2023-02-26T05:27:40;5.97;;;5.40;;
3259;SDS011;22469;48.150;14.004;2023-02-26T05:30:09;6.97;;;6.37;;
3259;SDS011;22469;48.150;14.004;2023-02-26T05:32:40;6.57;;;6.07;;
3259;SDS011;22469;48.150;14.004;2023-02-26T05:35:08;6.70;;;6.20;;
3259;SDS011;22469;48.150;14.004;2023-02-26T05:37:37;6.23;;;5.73;;
3259;SDS011;22469;48.150;14.004;2023-02-26T05:40:05;7.20;;;6.60;;
3259;SDS011;22469;48.150;14.004;2023-02-26T05:42:37;6.13;;;5.53;;
3259;SDS011;22469;48.150;14.004;2023-02-26T05:45:05;7.67;;;6.93;;
3259;SDS011;22469;48.150;14.004;2023-02-26T05:47:33;6.90;;;6.40;;
3259;SDS011;22469;48.150;14.004;2023-02-26T05:50:02;6.37;;;5.77;;
3259;SDS011;22469;48.150;14.004;2023-02-26T05:52:31;6.67;;;5.97;;
3259;SDS011;22469;48.150;14.004;2023-02-26T05:54:58;6.87;;;6.20;;
3259;SDS011;22469;48.150;14.004;2023-02-26T05:57:26;6.93;;;6.23;;
3259;SDS011;22469;48.150;14.004;2023-02-26T05:59:54;6.50;;;6.00;;
3259;SDS011;22469;48.150;14.004;2023-02-26T06:02:21;6.70;;;6.10;;
3259;SDS011;22469;48.150;14.004;2023-02-26T06:04:48;7.07;;;6.37;;
3259;SDS011;22469;48.150;14.004;2023-02-26T06:07:15;7.13;;;6.53;;
3259;SDS011;22469;48.150;14.004;2023-02-26T06:09:42;7.70;;;7.00;;
3259;SDS011;22469;48.150;14.004;2023-02-26T06:12:09;6.20;;;5.70;;
3259;SDS011;22469;48.150;14.004;2023-02-26T06:14:36;4.87;;;4.57;;
3259;SDS011;22469;48.150;14.004;2023-02-26T06:17:03;5.40;;;4.97;;
3259;SDS011;22469;48.150;14.004;2023-02-26T06:19:32;5.07;;;4.73;;
3259;SDS011;22469;48.150;14.004;2023-02-26T06:21:59;4.73;;;4.30;;
3259;SDS011;22469;48.150;14.004;2023-02-26T06:24:26;4.53;;;4.13;;
3259;SDS011;22469;48.150;14.004;2023-02-26T06:26:53;4.80;;;4.40;;
3259;SDS011;22469;48.150;14.004;2023-02-26T06:29:20;5.37;;;5.00;;
3259;SDS011;22469;48.150;14.004;2023-02-26T06:31:48;5.87;;;5.40;;
3259;SDS011;22469;48.150;14.004;2023-02-26T06:34:16;5.90;;;5.40;;
3259;SDS011;22469;48.150;14.004;2023-02-26T06:36:44;5.70;;;5.30;;
3259;SDS011;22469;48.150;14.004;2023-02-26T06:39:11;5.57;;;5.17;;
3259;SDS011;22469;48.150;14.004;2023-02-26T06:41:38;5.90;;;4.80;;
3259;SDS011;22469;48.150;14.004;2023-02-26T06:44:05;5.40;;;5.00;;
3259;SDS011;22469;48.150;14.004;2023-02-26T06:46:32;5.03;;;4.67;;
3259;SDS011;22469;48.150;14.004;2023-02-26T06:48:59;5.30;;;4.80;;
3259;SDS011;22469;48.150;14.004;2023-02-26T06:51:26;5.00;;;4.60;;
3259;SDS011;22469;48.150;14.004;2023-02-26T06:53:53;5.37;;;4.97;;
3259;SDS011;22469;48.150;14.004;2023-02-26T06:56:20;4.97;;;4.57;;
3259;SDS011;22469;48.150;14.004;2023-02-26T06:58:49;5.50;;;5.00;;
3259;SDS011;22469;48.150;14.004;2023-02-26T07:01:17;4.80;;;4.50;;
3259;SDS011;22469;48.150;14.004;2023-02-26T07:03:44;5.00;;;4.67;;
3259;SDS011;22469;48.150;14.004;2023-02-26T07:06:11;5.60;;;5.10;;
3259;SDS011;22469;48.150;14.004;2023-02-26T07:08:53;5.30;;;4.83;;
3259;SDS011;22469;48.150;14.004;2023-02-26T07:11:21;5.27;;;4.87;;
3259;SDS011;22469;48.150;14.004;2023-02-26T07:13:48;4.50;;;4.20;;
3259;SDS011;22469;48.150;14.004;2023-02-26T07:16:16;4.73;;;4.43;;
3259;SDS011;22469;48.150;14.004;2023-02-26T07:18:44;4.70;;;4.40;;
3259;SDS011;22469;48.150;14.004;2023-02-26T07:21:11;13.90;;;10.47;;
3259;SDS011;22469;48.150;14.004;2023-02-26T07:23:38;30.40;;;17.03;;
3259;SDS011;22469;48.150;14.004;2023-02-26T07:26:05;8.13;;;6.83;;
3259;SDS011;22469;48.150;14.004;2023-02-26T07:28:33;23.03;;;15.00;;
3259;SDS011;22469;48.150;14.004;2023-02-26T07:31:00;6.50;;;6.00;;
3259;SDS011;22469;48.150;14.004;2023-02-26T07:33:28;5.57;;;5.00;;
3259;SDS011;22469;48.150;14.004;2023-02-26T07:35:57;5.87;;;5.37;;
3259;SDS011;22469;48.150;14.004;2023-02-26T07:38:24;4.87;;;4.47;;
3259;SDS011;22469;48.150;14.004;2023-02-26T07:40:53;6.30;;;5.17;;
3259;SDS011;22469;48.150;14.004;2023-02-26T07:43:22;7.27;;;6.67;;
3259;SDS011;22469;48.150;14.004;2023-02-26T07:45:50;5.50;;;5.10;;
3259;SDS011;22469;48.150;14.004;2023-02-26T07:48:18;7.53;;;6.93;;
3259;SDS011;22469;48.150;14.004;2023-02-26T07:50:46;4.90;;;4.50;;
3259;SDS011;22469;48.150;14.004;2023-02-26T07:53:13;4.30;;;3.97;;
3259;SDS011;22469;48.150;14.004;2023-02-26T07:55:40;4.40;;;4.00;;
3259;SDS011;22469;48.150;14.004;2023-02-26T07:58:07;5.00;;;4.60;;
3259;SDS011;22469;48.150;14.004;2023-02-26T08:00:34;4.37;;;4.10;;
3259;SDS011;22469;48.150;14.004;2023-02-26T08:03:01;4.97;;;4.53;;
3259;SDS011;22469;48.150;14.004;2023-02-26T08:05:29;4.83;;;4.43;;
3259;SDS011;22469;48.150;14.004;2023-02-26T08:07:56;5.30;;;4.90;;
3259;SDS011;22469;48.150;14.004;2023-02-26T08:10:23;6.00;;;5.50;;
3259;SDS011;22469;48.150;14.004;2023-02-26T08:12:50;5.73;;;5.30;;
3259;SDS011;22469;48.150;14.004;2023-02-26T08:15:17;5.80;;;4.53;;
3259;SDS011;22469;48.150;14.004;2023-02-26T08:17:44;5.50;;;4.70;;
3259;SDS011;22469;48.150;14.004;2023-02-26T08:20:11;4.17;;;3.83;;
3259;SDS011;22469;48.150;14.004;2023-02-26T08:22:40;4.63;;;4.23;;
3259;SDS011;22469;48.150;14.004;2023-02-26T08:25:07;4.80;;;4.50;;
3259;SDS011;22469;48.150;14.004;2023-02-26T08:27:34;3.50;;;3.20;;
3259;SDS011;22469;48.150;14.004;2023-02-26T08:30:02;4.27;;;4.07;;
3259;SDS011;22469;48.150;14.004;2023-02-26T08:32:32;4.83;;;4.43;;
3259;SDS011;22469;48.150;14.004;2023-02-26T08:35:00;5.03;;;4.70;;
3259;SDS011;22469;48.150;14.004;2023-02-26T08:37:27;3.90;;;3.60;;
3259;SDS011;22469;48.150;14.004;2023-02-26T08:39:54;3.50;;;3.20;;
3259;SDS011;22469;48.150;14.004;2023-02-26T08:42:21;3.73;;;3.53;;
3259;SDS011;22469;48.150;14.004;2023-02-26T08:44:48;4.40;;;4.00;;
3259;SDS011;22469;48.150;14.004;2023-02-26T08:47:15;4.37;;;4.07;;
3259;SDS011;22469;48.150;14.004;2023-02-26T08:49:53;5.57;;;5.17;;
3259;SDS011;22469;48.150;14.004;2023-02-26T08:52:21;5.90;;;5.50;;
3259;SDS011;22469;48.150;14.004;2023-02-26T08:54:49;6.10;;;5.70;;
3259;SDS011;22469;48.150;14.004;2023-02-26T08:57:16;5.97;;;5.47;;
3259;SDS011;22469;48.150;14.004;2023-02-26T08:59:43;4.50;;;4.20;;
3259;SDS011;22469;48.150;14.004;2023-02-26T09:02:11;5.47;;;5.07;;
3259;SDS011;22469;48.150;14.004;2023-02-26T09:04:41;4.90;;;4.13;;
3259;SDS011;22469;48.150;14.004;2023-02-26T09:07:08;5.00;;;4.60;;
3259;SDS011;22469;48.150;14.004;2023-02-26T09:09:35;4.00;;;3.80;;
3259;SDS011;22469;48.150;14.004;2023-02-26T09:12:02;5.03;;;4.73;;
3259;SDS011;22469;48.150;14.004;2023-02-26T09:14:29;5.07;;;4.77;;
3259;SDS011;22469;48.150;14.004;2023-02-26T09:16:56;6.07;;;5.60;;
3259;SDS011;22469;48.150;14.004;2023-02-26T09:19:24;6.57;;;5.97;;
3259;SDS011;22469;48.150;14.004;2023-02-26T09:21:51;6.40;;;5.90;;
3259;SDS011;22469;48.150;14.004;2023-02-26T09:24:18;6.73;;;6.20;;
3259;SDS011;22469;48.150;14.004;2023-02-26T09:26:45;6.10;;;5.60;;
3259;SDS011;22469;48.150;14.004;2023-02-26T09:29:12;5.70;;;5.23;;
3259;SDS011;22469;48.150;14.004;2023-02-26T09:31:39;5.40;;;4.90;;
3259;SDS011;22469;48.150;14.004;2023-02-26T09:34:07;5.87;;;5.37;;
3259;SDS011;22469;48.150;14.004;2023-02-26T09:36:36;5.37;;;5.00;;
3259;SDS011;22469;48.150;14.004;2023-02-26T09:39:04;5.33;;;4.87;;
3259;SDS011;22469;48.150;14.004;2023-02-26T09:49:38;5.67;;;5.17;;
3259;SDS011;22469;48.150;14.004;2023-02-26T09:55:12;5.70;;;5.20;;
3259;SDS011;22469;48.150;14.004;2023-02-26T09:57:46;5.13;;;4.60;;
3259;SDS011;22469;48.150;14.004;2023-02-26T10:00:22;5.90;;;5.47;;
3259;SDS011;22469;48.150;14.004;2023-02-26T10:14:46;6.53;;;6.03;;
3259;SDS011;22469;48.150;14.004;2023-02-26T10:19:53;7.33;;;6.70;;
3259;SDS011;22469;48.150;14.004;2023-02-26T10:25:32;6.20;;;5.60;;
3259;SDS011;22469;48.150;14.004;2023-02-26T10:30:49;5.43;;;5.03;;
3259;SDS011;22469;48.150;14.004;2023-02-26T10:33:38;5.17;;;4.87;;
3259;SDS011;22469;48.150;14.004;2023-02-26T10:36:18;5.80;;;5.40;;
3259;SDS011;22469;48.150;14.004;2023-02-26T10:39:03;4.30;;;4.07;;
3259;SDS011;22469;48.150;14.004;2023-02-26T10:41:53;6.33;;;5.87;;
3259;SDS011;22469;48.150;14.004;2023-02-26T10:44:29;5.30;;;4.90;;
3259;SDS011;22469;48.150;14.004;2023-02-26T10:47:14;6.13;;;5.63;;
3259;SDS011;22469;48.150;14.004;2023-02-26T10:50:11;5.20;;;4.83;;
3259;SDS011;22469;48.150;14.004;2023-02-26T10:52:42;4.17;;;3.87;;
3259;SDS011;22469;48.150;14.004;2023-02-26T10:58:36;4.43;;;4.23;;
3259;SDS011;22469;48.150;14.004;2023-02-26T11:01:03;4.93;;;4.63;;
3259;SDS011;22469;48.150;14.004;2023-02-26T11:03:41;6.00;;;4.40;;
3259;SDS011;22469;48.150;14.004;2023-02-26T11:07:01;5.00;;;4.60;;
3259;SDS011;22469;48.150;14.004;2023-02-26T11:09:26;5.77;;;5.23;;
3259;SDS011;22469;48.150;14.004;2023-02-26T11:14:41;5.83;;;5.20;;
3259;SDS011;22469;48.150;14.004;2023-02-26T11:17:15;5.30;;;4.87;;
3259;SDS011;22469;48.150;14.004;2023-02-26T11:20:36;4.60;;;4.30;;
3259;SDS011;22469;48.150;14.004;2023-02-26T11:23:05;5.10;;;4.70;;
3259;SDS011;22469;48.150;14.004;2023-02-26T11:25:39;5.40;;;4.90;;
3259;SDS011;22469;48.150;14.004;2023-02-26T11:28:18;4.20;;;3.90;;
3259;SDS011;22469;48.150;14.004;2023-02-26T11:31:08;4.30;;;4.03;;
3259;SDS011;22469;48.150;14.004;2023-02-26T11:33:38;5.63;;;4.43;;
3259;SDS011;22469;48.150;14.004;2023-02-26T11:36:11;4.57;;;4.27;;
3259;SDS011;22469;48.150;14.004;2023-02-26T11:38:46;4.23;;;3.93;;
3259;SDS011;22469;48.150;14.004;2023-02-26T11:41:23;5.00;;;4.67;;
3259;SDS011;22469;48.150;14.004;2023-02-26T11:44:15;3.80;;;3.60;;
3259;SDS011;22469;48.150;14.004;2023-02-26T11:46:51;6.00;;;5.60;;
3259;SDS011;22469;48.150;14.004;2023-02-26T11:49:22;4.30;;;4.00;;
3259;SDS011;22469;48.150;14.004;2023-02-26T11:52:05;4.03;;;3.83;;
3259;SDS011;22469;48.150;14.004;2023-02-26T11:54:41;3.77;;;3.47;;
3259;SDS011;22469;48.150;14.004;2023-02-26T11:57:18;4.10;;;3.90;;
3259;SDS011;22469;48.150;14.004;2023-02-26T11:59:51;3.70;;;3.00;;
3259;SDS011;22469;48.150;14.004;2023-02-26T12:02:21;3.47;;;3.27;;
3259;SDS011;22469;48.150;14.004;2023-02-26T12:04:55;2.60;;;2.50;;
3259;SDS011;22469;48.150;14.004;2023-02-26T12:07:26;4.00;;;3.80;;
3259;SDS011;22469;48.150;14.004;2023-02-26T12:09:53;3.37;;;3.27;;
3259;SDS011;22469;48.150;14.004;2023-02-26T12:21:13;2.53;;;2.43;;
3259;SDS011;22469;48.150;14.004;2023-02-26T12:39:05;1.90;;;1.80;;
3259;SDS011;22469;48.150;14.004;2023-02-26T12:42:12;1.30;;;1.30;;
3259;SDS011;22469;48.150;14.004;2023-02-26T12:51:42;1.90;;;1.80;;
3259;SDS011;22469;48.150;14.004;2023-02-26T12:57:44;2.00;;;1.90;;
3259;SDS011;22469;48.150;14.004;2023-02-26T13:15:19;1.80;;;1.70;;
3259;SDS011;22469;48.150;14.004;2023-02-26T13:18:11;1.80;;;1.70;;
3259;SDS011;22469;48.150;14.004;2023-02-26T13:20:56;1.80;;;1.70;;
3259;SDS011;22469;48.150;14.004;2023-02-26T13:26:26;1.60;;;1.60;;
3259;SDS011;22469;48.150;14.004;2023-02-26T13:29:00;1.90;;;1.80;;
3259;SDS011;22469;48.150;14.004;2023-02-26T13:31:35;1.43;;;1.40;;
3259;SDS011;22469;48.150;14.004;2023-02-26T13:37:21;2.20;;;1.93;;
3259;SDS011;22469;48.150;14.004;2023-02-26T13:40:10;1.90;;;1.70;;
3259;SDS011;22469;48.150;14.004;2023-02-26T13:45:55;1.70;;;1.70;;
3259;SDS011;22469;48.150;14.004;2023-02-26T13:51:35;1.53;;;1.43;;
3259;SDS011;22469;48.150;14.004;2023-02-26T14:01:47;1.90;;;1.80;;
3259;SDS011;22469;48.150;14.004;2023-02-26T14:04:24;1.67;;;1.63;;
3259;SDS011;22469;48.150;14.004;2023-02-26T14:07:09;1.67;;;1.60;;
3259;SDS011;22469;48.150;14.004;2023-02-26T14:10:14;1.93;;;1.83;;
3259;SDS011;22469;48.150;14.004;2023-02-26T14:13:01;1.53;;;1.53;;
3259;SDS011;22469;48.150;14.004;2023-02-26T14:15:41;3.13;;;2.83;;
3259;SDS011;22469;48.150;14.004;2023-02-26T14:18:19;2.00;;;1.90;;
3259;SDS011;22469;48.150;14.004;2023-02-26T14:22:00;1.97;;;1.87;;
3259;SDS011;22469;48.150;14.004;2023-02-26T14:29:39;1.60;;;1.60;;
3259;SDS011;22469;48.150;14.004;2023-02-26T14:35:32;2.30;;;2.20;;
3259;SDS011;22469;48.150;14.004;2023-02-26T14:38:22;1.83;;;1.73;;
3259;SDS011;22469;48.150;14.004;2023-02-26T14:40:54;1.83;;;1.73;;
3259;SDS011;22469;48.150;14.004;2023-02-26T14:43:35;1.87;;;1.77;;
3259;SDS011;22469;48.150;14.004;2023-02-26T14:46:06;1.97;;;1.83;;
3259;SDS011;22469;48.150;14.004;2023-02-26T14:48:35;1.70;;;1.60;;
3259;SDS011;22469;48.150;14.004;2023-02-26T14:51:09;2.20;;;2.10;;
3259;SDS011;22469;48.150;14.004;2023-02-26T15:08:55;1.73;;;1.60;;
3259;SDS011;22469;48.150;14.004;2023-02-26T15:17:21;2.30;;;1.90;;
3259;SDS011;22469;48.150;14.004;2023-02-26T15:26:12;2.10;;;1.97;;
3259;SDS011;22469;48.150;14.004;2023-02-26T15:28:51;8.50;;;3.20;;
3259;SDS011;22469;48.150;14.004;2023-02-26T15:31:20;4.20;;;2.10;;
3259;SDS011;22469;48.150;14.004;2023-02-26T15:34:02;2.17;;;2.07;;
3259;SDS011;22469;48.150;14.004;2023-02-26T15:36:30;2.30;;;2.20;;
3259;SDS011;22469;48.150;14.004;2023-02-26T15:38:58;2.37;;;2.17;;
3259;SDS011;22469;48.150;14.004;2023-02-26T15:41:29;2.60;;;2.40;;
3259;SDS011;22469;48.150;14.004;2023-02-26T15:44:03;2.30;;;2.10;;
3259;SDS011;22469;48.150;14.004;2023-02-26T15:46:39;2.47;;;2.27;;
3259;SDS011;22469;48.150;14.004;2023-02-26T15:49:16;2.30;;;2.10;;
3259;SDS011;22469;48.150;14.004;2023-02-26T15:51:54;2.10;;;2.00;;
3259;SDS011;22469;48.150;14.004;2023-02-26T15:54:32;2.87;;;2.30;;
3259;SDS011;22469;48.150;14.004;2023-02-26T15:57:10;2.10;;;2.00;;
3259;SDS011;22469;48.150;14.004;2023-02-26T15:59:43;2.47;;;2.37;;
3259;SDS011;22469;48.150;14.004;2023-02-26T16:02:19;3.80;;;3.23;;
3259;SDS011;22469;48.150;14.004;2023-02-26T16:04:52;2.50;;;2.40;;
3259;SDS011;22469;48.150;14.004;2023-02-26T16:07:19;2.03;;;1.93;;
3259;SDS011;22469;48.150;14.004;2023-02-26T16:09:51;1.77;;;1.77;;
3259;SDS011;22469;48.150;14.004;2023-02-26T16:12:21;2.70;;;2.50;;
3259;SDS011;22469;48.150;14.004;2023-02-26T16:15:01;2.13;;;2.03;;
3259;SDS011;22469;48.150;14.004;2023-02-26T16:17:34;1.97;;;1.87;;
3259;SDS011;22469;48.150;14.004;2023-02-26T16:20:16;1.70;;;1.70;;
3259;SDS011;22469;48.150;14.004;2023-02-26T16:22:48;1.90;;;1.80;;
3259;SDS011;22469;48.150;14.004;2023-02-26T16:25:30;1.90;;;1.80;;
3259;SDS011;22469;48.150;14.004;2023-02-26T16:28:29;2.80;;;2.70;;
3259;SDS011;22469;48.150;14.004;2023-02-26T16:31:01;2.57;;;2.47;;
3259;SDS011;22469;48.150;14.004;2023-02-26T16:33:32;2.10;;;2.00;;
3259;SDS011;22469;48.150;14.004;2023-02-26T16:36:13;2.10;;;1.90;;
3259;SDS011;22469;48.150;14.004;2023-02-26T16:41:15;2.73;;;2.53;;
3259;SDS011;22469;48.150;14.004;2023-02-26T16:43:52;2.17;;;2.07;;
3259;SDS011;22469;48.150;14.004;2023-02-26T16:46:27;2.50;;;2.10;;
3259;SDS011;22469;48.150;14.004;2023-02-26T16:49:24;3.07;;;2.87;;
3259;SDS011;22469;48.150;14.004;2023-02-26T16:52:01;3.20;;;2.90;;
3259;SDS011;22469;48.150;14.004;2023-02-26T16:54:31;2.93;;;2.83;;
3259;SDS011;22469;48.150;14.004;2023-02-26T16:59:42;3.00;;;2.80;;
3259;SDS011;22469;48.150;14.004;2023-02-26T17:02:31;3.17;;;2.73;;
3259;SDS011;22469;48.150;14.004;2023-02-26T17:05:02;2.90;;;2.70;;
3259;SDS011;22469;48.150;14.004;2023-02-26T17:07:47;2.50;;;2.40;;
3259;SDS011;22469;48.150;14.004;2023-02-26T17:10:23;2.67;;;2.47;;
3259;SDS011;22469;48.150;14.004;2023-02-26T17:13:26;3.40;;;3.13;;
3259;SDS011;22469;48.150;14.004;2023-02-26T17:16:02;2.63;;;2.53;;
3259;SDS011;22469;48.150;14.004;2023-02-26T17:18:33;2.73;;;2.57;;
3259;SDS011;22469;48.150;14.004;2023-02-26T17:21:00;2.07;;;1.97;;
3259;SDS011;22469;48.150;14.004;2023-02-26T17:23:32;4.07;;;3.70;;
3259;SDS011;22469;48.150;14.004;2023-02-26T17:26:02;3.30;;;3.00;;
3259;SDS011;22469;48.150;14.004;2023-02-26T17:28:32;2.70;;;2.50;;
3259;SDS011;22469;48.150;14.004;2023-02-26T17:31:06;3.07;;;2.53;;
3259;SDS011;22469;48.150;14.004;2023-02-26T17:33:34;2.80;;;2.67;;
3259;SDS011;22469;48.150;14.004;2023-02-26T17:36:04;2.73;;;2.53;;
3259;SDS011;22469;48.150;14.004;2023-02-26T17:38:31;3.10;;;2.10;;
3259;SDS011;22469;48.150;14.004;2023-02-26T17:40:59;3.50;;;2.70;;
3259;SDS011;22469;48.150;14.004;2023-02-26T17:43:26;2.40;;;2.30;;
3259;SDS011;22469;48.150;14.004;2023-02-26T17:45:54;2.10;;;1.97;;
3259;SDS011;22469;48.150;14.004;2023-02-26T17:48:21;2.23;;;2.13;;
3259;SDS011;22469;48.150;14.004;2023-02-26T17:50:50;2.50;;;2.40;;
3259;SDS011;22469;48.150;14.004;2023-02-26T17:53:20;3.10;;;3.00;;
3259;SDS011;22469;48.150;14.004;2023-02-26T17:55:53;2.43;;;2.33;;
3259;SDS011;22469;48.150;14.004;2023-02-26T18:00:57;2.50;;;2.40;;
3259;SDS011;22469;48.150;14.004;2023-02-26T18:03:24;3.80;;;2.93;;
3259;SDS011;22469;48.150;14.004;2023-02-26T18:05:52;3.57;;;2.57;;
3259;SDS011;22469;48.150;14.004;2023-02-26T18:08:22;3.27;;;2.97;;
3259;SDS011;22469;48.150;14.004;2023-02-26T18:10:58;3.47;;;2.90;;
3259;SDS011;22469;48.150;14.004;2023-02-26T18:13:26;3.33;;;3.13;;
3259;SDS011;22469;48.150;14.004;2023-02-26T18:15:55;2.83;;;2.70;;
3259;SDS011;22469;48.150;14.004;2023-02-26T18:18:24;3.27;;;3.07;;
3259;SDS011;22469;48.150;14.004;2023-02-26T18:20:52;2.67;;;2.47;;
3259;SDS011;22469;48.150;14.004;2023-02-26T18:23:20;3.03;;;2.60;;
3259;SDS011;22469;48.150;14.004;2023-02-26T18:25:49;3.07;;;2.70;;
3259;SDS011;22469;48.150;14.004;2023-02-26T18:28:25;3.20;;;2.97;;
3259;SDS011;22469;48.150;14.004;2023-02-26T18:30:54;3.70;;;3.10;;
3259;SDS011;22469;48.150;14.004;2023-02-26T18:33:23;3.33;;;3.03;;
3259;SDS011;22469;48.150;14.004;2023-02-26T18:35:52;3.00;;;2.80;;
3259;SDS011;22469;48.150;14.004;2023-02-26T18:38:23;3.23;;;3.00;;
3259;SDS011;22469;48.150;14.004;2023-02-26T18:40:53;3.70;;;3.20;;